Time;durP1;ratioP1;P1;durP2;ratioP2;P2;SDS_P1;SDS_P2;PMS_P1;PMS_P2;Temp;Humidity;BMP_temperature;BMP_pressure;BME280_temperature;BME280_humidity;BME280_pressure;Samples;Min_cycle;Max_cycle;Signal;HPM_P1;HPM_P2
2022/08/20 00:01:24;;;;;;;0.50;0.50;;;20.80;80.30;;;;;;6247354;22;20012;-75
2022/08/20 00:03:50;;;;;;;0.63;0.63;;;20.70;80.30;;;;;;6271172;22;20000;-74
2022/08/20 00:06:19;;;;;;;0.88;0.60;;;20.80;80.50;;;;;;6247027;22;20015;-74
2022/08/20 00:08:45;;;;;;;0.40;0.40;;;20.80;80.50;;;;;;6274357;22;20075;-75
2022/08/20 00:11:15;;;;;;;0.60;0.60;;;20.70;80.50;;;;;;6247410;22;20057;-75
2022/08/20 00:13:47;;;;;;;0.60;0.60;;;20.70;80.60;;;;;;6221744;22;20004;-74
2022/08/20 00:16:14;;;;;;;0.70;0.50;;;20.70;80.70;;;;;;6274339;22;20000;-74
2022/08/20 00:18:40;;;;;;;0.60;0.60;;;20.70;80.70;;;;;;6274354;22;19996;-74
2022/08/20 00:21:12;;;;;;;0.75;0.65;;;20.70;80.70;;;;;;6274729;22;20046;-75
2022/08/20 00:23:41;;;;;;;0.60;0.60;;;20.70;80.80;;;;;;6274654;22;20026;-74
2022/08/20 00:26:09;;;;;;;0.70;0.60;;;20.70;80.80;;;;;;6274265;22;20004;-74
2022/08/20 00:28:36;;;;;;;1.05;0.80;;;20.60;80.70;;;;;;6247350;22;20012;-74
2022/08/20 00:31:04;;;;;;;0.50;0.50;;;20.60;80.80;;;;;;6222509;22;20008;-74
2022/08/20 00:33:30;;;;;;;0.80;0.63;;;20.60;80.90;;;;;;6221918;22;20377;-75
2022/08/20 00:35:56;;;;;;;0.52;0.52;;;20.60;80.90;;;;;;6274003;22;20034;-74
2022/08/20 00:38:24;;;;;;;1.30;0.90;;;20.70;80.90;;;;;;6247225;22;20038;-75
2022/08/20 00:40:58;;;;;;;0.77;0.77;;;20.70;80.90;;;;;;6273927;22;20390;-75
2022/08/20 00:43:39;;;;;;;0.50;0.50;;;20.70;80.90;;;;;;6244198;22;20039;-75
2022/08/20 00:46:11;;;;;;;0.50;0.50;;;20.60;80.90;;;;;;6273807;22;20012;-74
2022/08/20 00:48:39;;;;;;;0.60;0.60;;;20.60;80.80;;;;;;6220942;22;20126;-74
2022/08/20 00:51:11;;;;;;;0.65;0.65;;;20.60;80.80;;;;;;6274641;22;20010;-74
2022/08/20 00:53:37;;;;;;;0.70;0.70;;;20.60;80.90;;;;;;6246398;22;20018;-74
2022/08/20 00:56:05;;;;;;;0.80;0.80;;;20.60;81.00;;;;;;6274224;22;20000;-73
2022/08/20 00:58:32;;;;;;;0.68;0.68;;;20.60;81.00;;;;;;6273904;22;20007;-74
2022/08/20 01:00:58;;;;;;;1.00;0.80;;;20.50;81.00;;;;;;6274581;22;20050;-73
2022/08/20 01:03:26;;;;;;;1.05;0.70;;;20.50;81.10;;;;;;6273869;22;20007;-74
2022/08/20 01:05:52;;;;;;;0.82;0.80;;;20.60;81.20;;;;;;6273821;22;20043;-73
2022/08/20 01:08:21;;;;;;;0.88;0.80;;;20.50;81.20;;;;;;6274183;22;20324;-73
2022/08/20 01:10:56;;;;;;;0.98;0.90;;;20.50;81.30;;;;;;6275827;22;20000;-73
2022/08/20 01:13:24;;;;;;;0.88;0.88;;;20.50;81.30;;;;;;6249680;22;20011;-73
2022/08/20 01:15:53;;;;;;;0.70;0.70;;;20.50;81.40;;;;;;6275279;22;20309;-73
2022/08/20 01:18:23;;;;;;;0.73;0.73;;;20.50;81.40;;;;;;6274985;22;19996;-74
2022/08/20 01:20:58;;;;;;;1.60;1.00;;;20.50;81.50;;;;;;6247972;22;20011;-73
2022/08/20 01:23:46;;;;;;;0.80;0.80;;;20.60;81.50;;;;;;6274884;22;20008;-73
2022/08/20 01:26:20;;;;;;;1.25;1.00;;;20.50;81.70;;;;;;6275008;22;20031;-73
2022/08/20 01:28:51;;;;;;;0.60;0.60;;;20.50;81.70;;;;;;6275432;22;20178;-74
2022/08/20 01:31:23;;;;;;;0.90;0.77;;;20.40;81.70;;;;;;6275270;22;20061;-74
2022/08/20 01:33:51;;;;;;;1.13;0.75;;;20.40;81.90;;;;;;6272147;22;20011;-74
2022/08/20 01:36:21;;;;;;;0.65;0.65;;;20.30;81.90;;;;;;6275281;22;20004;-74
2022/08/20 01:38:47;;;;;;;1.05;0.90;;;20.30;82.00;;;;;;6249064;22;20420;-74
2022/08/20 01:41:27;;;;;;;0.77;0.77;;;20.30;82.00;;;;;;6275073;22;20012;-74
2022/08/20 01:43:55;;;;;;;1.13;0.80;;;20.30;82.10;;;;;;6275042;22;20440;-74
2022/08/20 01:46:27;;;;;;;0.85;0.70;;;20.30;82.00;;;;;;6272421;22;20015;-74
2022/08/20 01:48:54;;;;;;;1.00;0.90;;;20.40;82.20;;;;;;6275037;22;20006;-74
2022/08/20 01:51:25;;;;;;;1.85;1.00;;;20.40;82.20;;;;;;6275276;22;20004;-74
2022/08/20 01:53:54;;;;;;;1.40;1.00;;;20.30;82.20;;;;;;6275020;22;20014;-74
2022/08/20 01:56:25;;;;;;;0.80;0.80;;;20.30;82.30;;;;;;6247784;22;19999;-74
2022/08/20 01:58:53;;;;;;;;;;;20.30;82.30;;;;;;6275462;22;20327;-74
2022/08/20 02:01:24;;;;;;;1.02;0.85;;;20.30;82.30;;;;;;6248175;22;19926;-74
2022/08/20 02:03:50;;;;;;;1.00;0.75;;;20.30;82.30;;;;;;6248118;22;20011;-74
2022/08/20 02:06:17;;;;;;;1.10;0.82;;;20.20;82.30;;;;;;6275168;22;20000;-74
2022/08/20 02:08:43;;;;;;;1.15;0.90;;;20.20;82.40;;;;;;6222449;22;20012;-74
2022/08/20 02:11:11;;;;;;;1.02;0.73;;;20.30;82.40;;;;;;6275224;22;20034;-74
2022/08/20 02:13:39;;;;;;;0.70;0.70;;;20.30;82.40;;;;;;6275102;22;20008;-74
2022/08/20 02:16:05;;;;;;;0.90;0.70;;;20.30;82.40;;;;;;6275129;22;20011;-74
2022/08/20 02:18:31;;;;;;;0.68;0.68;;;20.30;82.50;;;;;;6275105;22;20016;-74
2022/08/20 02:20:58;;;;;;;0.77;0.68;;;20.20;82.40;;;;;;6248032;22;20038;-74
2022/08/20 02:23:24;;;;;;;0.73;0.70;;;20.30;82.60;;;;;;6248312;22;20014;-74
2022/08/20 02:25:50;;;;;;;0.70;0.60;;;20.20;82.60;;;;;;6275314;22;20344;-73
2022/08/20 02:28:18;;;;;;;0.70;0.70;;;20.20;82.60;;;;;;6276920;22;20015;-73
2022/08/20 02:30:48;;;;;;;0.80;0.80;;;20.20;82.60;;;;;;6274978;22;20008;-74
2022/08/20 02:33:16;;;;;;;0.63;0.60;;;20.30;82.60;;;;;;6247534;22;20018;-74
2022/08/20 02:35:45;;;;;;;1.00;0.90;;;20.20;82.50;;;;;;6222912;22;20008;-74
2022/08/20 02:38:11;;;;;;;1.05;1.00;;;20.30;82.70;;;;;;6275058;22;19999;-74
2022/08/20 02:40:38;;;;;;;0.75;0.75;;;20.30;82.60;;;;;;6275056;22;20000;-74
2022/08/20 02:43:04;;;;;;;1.10;1.00;;;20.30;82.70;;;;;;6275222;22;20008;-74
2022/08/20 02:45:37;;;;;;;0.93;0.90;;;20.30;82.70;;;;;;6248437;22;20115;-74
2022/08/20 02:48:04;;;;;;;1.15;0.77;;;20.40;82.70;;;;;;6276522;22;19999;-74
2022/08/20 02:50:30;;;;;;;1.25;1.10;;;20.30;82.70;;;;;;6277994;22;20014;-74
2022/08/20 02:52:56;;;;;;;1.08;0.90;;;20.30;82.60;;;;;;6277238;22;20010;-73
2022/08/20 02:55:22;;;;;;;0.93;0.80;;;20.40;82.70;;;;;;6276711;22;20120;-74
2022/08/20 02:57:47;;;;;;;1.58;0.90;;;20.30;82.70;;;;;;6248775;22;20012;-74
2022/08/20 03:00:17;;;;;;;1.13;1.00;;;20.30;82.80;;;;;;6248314;22;20056;-73
2022/08/20 03:02:44;;;;;;;0.93;0.75;;;20.30;82.80;;;;;;6275229;22;20436;-74
2022/08/20 03:05:10;;;;;;;1.05;0.95;;;20.30;82.80;;;;;;6247753;22;20041;-73
2022/08/20 03:07:45;;;;;;;0.50;0.47;;;20.30;82.80;;;;;;6247408;22;20022;-73
2022/08/20 03:10:12;;;;;;;0.68;0.68;;;20.30;82.90;;;;;;6247833;22;20160;-74
2022/08/20 03:12:38;;;;;;;0.60;0.60;;;20.20;83.00;;;;;;6273803;22;20381;-73
2022/08/20 03:15:06;;;;;;;0.77;0.60;;;20.20;83.00;;;;;;6247400;22;20073;-73
2022/08/20 03:17:32;;;;;;;0.55;0.55;;;20.20;83.10;;;;;;6272586;22;20008;-74
2022/08/20 03:19:58;;;;;;;0.73;0.73;;;20.20;83.10;;;;;;6274445;22;20027;-74
2022/08/20 03:22:23;;;;;;;0.65;0.65;;;20.20;83.10;;;;;;6274742;22;20011;-74
2022/08/20 03:24:49;;;;;;;0.52;0.52;;;20.20;83.10;;;;;;6275370;22;20062;-74
2022/08/20 03:27:15;;;;;;;0.52;0.52;;;20.10;83.10;;;;;;6274835;22;20454;-74
2022/08/20 03:29:40;;;;;;;0.68;0.40;;;20.20;83.10;;;;;;6247658;22;20324;-74
2022/08/20 03:32:06;;;;;;;0.57;0.52;;;20.20;83.10;;;;;;6247971;22;20063;-74
2022/08/20 03:34:33;;;;;;;0.60;0.60;;;20.10;83.00;;;;;;6246731;22;20091;-73
2022/08/20 03:36:59;;;;;;;0.50;0.50;;;20.10;83.00;;;;;;6247940;22;19996;-73
2022/08/20 03:39:25;;;;;;;0.50;0.50;;;20.10;83.20;;;;;;6246832;22;20062;-73
2022/08/20 03:41:50;;;;;;;1.50;0.63;;;20.10;83.20;;;;;;6275452;22;20000;-74
2022/08/20 03:44:17;;;;;;;0.70;0.52;;;20.10;83.20;;;;;;6274860;22;20000;-74
2022/08/20 03:46:43;;;;;;;1.63;1.05;;;20.10;83.20;;;;;;6248315;22;20004;-74
2022/08/20 03:49:09;;;;;;;1.05;0.95;;;20.10;83.20;;;;;;6247698;22;20331;-73
2022/08/20 03:51:35;;;;;;;0.77;0.70;;;20.00;83.20;;;;;;6275140;22;20000;-74
2022/08/20 03:54:00;;;;;;;0.68;0.68;;;20.00;83.30;;;;;;6274887;22;20107;-74
2022/08/20 03:56:26;;;;;;;0.90;0.73;;;20.00;83.40;;;;;;6248303;22;20035;-73
2022/08/20 03:58:52;;;;;;;0.70;0.70;;;20.00;83.40;;;;;;6247231;22;20065;-74
2022/08/20 04:01:18;;;;;;;0.63;0.43;;;20.00;83.50;;;;;;6247614;22;20121;-74
2022/08/20 04:03:44;;;;;;;0.50;0.50;;;20.00;83.40;;;;;;6247828;22;20032;-74
2022/08/20 04:06:10;;;;;;;0.63;0.63;;;20.00;83.50;;;;;;6275003;22;20008;-73
2022/08/20 04:08:39;;;;;;;1.27;0.70;;;20.00;83.40;;;;;;6247646;22;20086;-74
2022/08/20 04:11:04;;;;;;;0.73;0.57;;;20.00;83.50;;;;;;6245624;22;20022;-74
2022/08/20 04:13:30;;;;;;;0.60;0.60;;;19.90;83.50;;;;;;6247797;22;20011;-74
2022/08/20 04:15:57;;;;;;;0.60;0.50;;;19.90;83.60;;;;;;6247807;22;20004;-74
2022/08/20 04:18:25;;;;;;;0.57;0.47;;;19.80;83.60;;;;;;6274972;22;20000;-73
2022/08/20 04:20:52;;;;;;;0.88;0.73;;;19.80;83.60;;;;;;6275201;22;20003;-73
2022/08/20 04:23:18;;;;;;;0.45;0.45;;;19.90;83.70;;;;;;6245256;22;20443;-74
2022/08/20 04:25:45;;;;;;;0.90;0.52;;;19.90;83.70;;;;;;6274800;22;20038;-74
2022/08/20 04:28:14;;;;;;;0.47;0.47;;;19.80;83.60;;;;;;6248102;22;20092;-73
2022/08/20 04:30:41;;;;;;;0.60;0.60;;;19.80;83.70;;;;;;6274643;22;20428;-74
2022/08/20 04:33:08;;;;;;;0.50;0.50;;;19.70;83.70;;;;;;6245434;22;20035;-74
2022/08/20 04:35:34;;;;;;;0.60;0.60;;;19.80;83.80;;;;;;6247883;22;20064;-74
2022/08/20 04:38:06;;;;;;;0.60;0.60;;;19.80;83.80;;;;;;6274827;22;20087;-74
2022/08/20 04:43:13;;;;;;;;;;;19.80;83.70;;;;;;6275285;22;20011;-73
2022/08/20 04:45:39;;;;;;;0.63;0.50;;;19.80;83.60;;;;;;6276444;22;20334;-74
2022/08/20 04:48:06;;;;;;;0.55;0.55;;;19.80;83.50;;;;;;6248708;22;20458;-74
2022/08/20 04:50:34;;;;;;;0.50;0.50;;;19.80;83.50;;;;;;6275588;22;20098;-74
2022/08/20 04:53:02;;;;;;;0.68;0.68;;;19.80;83.50;;;;;;6275094;22;20019;-74
2022/08/20 04:55:28;;;;;;;0.60;0.60;;;19.80;83.50;;;;;;6276142;22;20094;-74
2022/08/20 04:57:58;;;;;;;0.52;0.52;;;19.80;83.40;;;;;;6275641;22;20007;-74
2022/08/20 05:00:25;;;;;;;0.50;0.50;;;19.80;83.40;;;;;;6276204;22;20003;-74
2022/08/20 05:02:51;;;;;;;0.80;0.63;;;19.90;83.50;;;;;;6248273;22;20007;-77
2022/08/20 05:05:18;;;;;;;0.60;0.60;;;19.90;83.60;;;;;;6276146;22;20000;-74
2022/08/20 05:07:45;;;;;;;0.63;0.63;;;19.80;83.70;;;;;;6273075;22;20000;-74
2022/08/20 05:10:15;;;;;;;1.85;0.77;;;19.80;83.80;;;;;;6246422;22;20008;-74
2022/08/20 05:12:42;;;;;;;0.57;0.57;;;19.70;83.90;;;;;;6275225;22;20138;-75
2022/08/20 05:15:10;;;;;;;0.80;0.70;;;19.80;83.90;;;;;;6275413;22;20014;-74
2022/08/20 05:17:37;;;;;;;1.38;0.88;;;19.90;84.00;;;;;;6275772;22;20049;-74
2022/08/20 05:20:06;;;;;;;1.05;0.77;;;19.70;83.90;;;;;;6248498;22;19999;-74
2022/08/20 05:22:32;;;;;;;1.15;0.80;;;19.70;84.00;;;;;;6275549;22;20086;-74
2022/08/20 05:25:00;;;;;;;0.60;0.60;;;19.70;84.00;;;;;;6276142;22;20027;-74
2022/08/20 05:27:27;;;;;;;0.57;0.57;;;19.70;84.00;;;;;;6248691;22;20012;-74
2022/08/20 05:30:00;;;;;;;1.08;0.50;;;19.70;84.10;;;;;;6275713;22;20008;-74
2022/08/20 05:32:26;;;;;;;0.90;0.60;;;19.70;84.10;;;;;;6249977;22;20010;-73
2022/08/20 05:34:53;;;;;;;0.50;0.50;;;19.60;84.10;;;;;;6275872;22;20013;-74
2022/08/20 05:37:19;;;;;;;1.15;0.60;;;19.60;84.10;;;;;;6248523;22;20011;-74
2022/08/20 05:39:45;;;;;;;0.70;0.70;;;19.60;84.10;;;;;;6248526;22;20000;-74
2022/08/20 05:42:11;;;;;;;0.40;0.40;;;19.60;84.10;;;;;;6277069;22;20000;-74
2022/08/20 05:44:37;;;;;;;0.80;0.55;;;19.60;84.30;;;;;;6283680;22;20000;-74
2022/08/20 05:47:04;;;;;;;0.50;0.50;;;19.50;84.30;;;;;;6233056;22;20007;-74
2022/08/20 05:49:30;;;;;;;0.60;0.60;;;19.50;84.40;;;;;;6286729;22;20026;-74
2022/08/20 05:51:56;;;;;;;0.40;0.40;;;19.40;84.50;;;;;;6286498;22;19999;-77
2022/08/20 05:54:22;;;;;;;0.35;0.30;;;19.40;84.50;;;;;;6291162;22;20015;-75
2022/08/20 05:56:49;;;;;;;0.70;0.52;;;19.40;84.60;;;;;;6290298;22;20000;-75
2022/08/20 05:59:15;;;;;;;0.40;0.40;;;19.40;84.60;;;;;;6290020;22;20011;-76
2022/08/20 06:01:41;;;;;;;0.98;0.50;;;19.40;84.70;;;;;;6262082;22;19996;-75
2022/08/20 06:06:49;;;;;;;0.50;0.50;;;19.30;84.70;;;;;;6284729;22;20394;-75
2022/08/20 06:09:18;;;;;;;0.40;0.40;;;19.30;84.80;;;;;;6283029;22;20034;-76
2022/08/20 06:11:43;;;;;;;0.70;0.70;;;19.20;84.70;;;;;;6255964;22;19999;-76
2022/08/20 06:14:09;;;;;;;0.43;0.40;;;19.30;84.80;;;;;;6281869;22;20018;-76
2022/08/20 06:16:35;;;;;;;0.50;0.50;;;19.30;84.70;;;;;;6281856;22;19999;-76
2022/08/20 06:19:01;;;;;;;0.38;0.30;;;19.30;84.70;;;;;;6254312;22;20004;-76
2022/08/20 06:21:27;;;;;;;0.40;0.40;;;19.30;84.70;;;;;;6280324;22;20329;-76
2022/08/20 06:23:53;;;;;;;0.63;0.50;;;19.50;84.80;;;;;;6252098;22;20016;-76
2022/08/20 06:26:18;;;;;;;0.77;0.55;;;19.40;84.60;;;;;;6257051;22;20067;-76
2022/08/20 06:28:44;;;;;;;0.88;0.40;;;19.40;84.50;;;;;;6283657;22;20428;-76
2022/08/20 06:31:10;;;;;;;0.57;0.57;;;19.40;84.40;;;;;;6232679;22;20004;-76
2022/08/20 06:33:36;;;;;;;0.50;0.50;;;19.50;84.40;;;;;;6286544;22;20007;-76
2022/08/20 06:36:03;;;;;;;0.50;0.50;;;19.50;84.30;;;;;;6257153;22;20032;-76
2022/08/20 06:38:31;;;;;;;0.47;0.47;;;19.50;84.20;;;;;;6260562;22;19999;-76
2022/08/20 06:40:57;;;;;;;0.60;0.60;;;19.50;84.10;;;;;;6292623;22;20003;-76
2022/08/20 06:43:23;;;;;;;1.55;0.35;;;19.50;84.00;;;;;;6260181;22;20007;-76
2022/08/20 06:45:48;;;;;;;0.75;0.52;;;19.50;84.00;;;;;;6255860;22;20012;-76
2022/08/20 06:48:16;;;;;;;0.70;0.50;;;19.50;84.10;;;;;;6282973;22;20488;-75
2022/08/20 06:50:45;;;;;;;0.50;0.50;;;19.50;84.10;;;;;;6253659;22;20071;-76
2022/08/20 06:53:13;;;;;;;0.50;0.50;;;19.60;84.10;;;;;;6281532;22;20004;-76
2022/08/20 06:55:42;;;;;;;0.60;0.55;;;19.70;84.00;;;;;;6256317;22;20034;-75
2022/08/20 06:58:10;;;;;;;0.65;0.43;;;19.70;83.80;;;;;;6279566;22;20003;-75
2022/08/20 07:00:39;;;;;;;1.52;0.45;;;19.70;83.70;;;;;;6253042;22;20010;-75
2022/08/20 07:03:05;;;;;;;0.40;0.40;;;19.70;83.70;;;;;;6255722;22;20003;-75
2022/08/20 07:05:34;;;;;;;0.50;0.50;;;19.60;83.70;;;;;;6280831;22;20008;-75
2022/08/20 07:08:00;;;;;;;0.47;0.47;;;19.60;83.80;;;;;;6279390;22;20008;-75
2022/08/20 07:10:27;;;;;;;0.73;0.50;;;19.60;83.90;;;;;;6278033;22;20050;-75
2022/08/20 07:12:54;;;;;;;0.50;0.50;;;19.60;83.90;;;;;;6250624;22;20011;-75
2022/08/20 07:15:24;;;;;;;0.50;0.50;;;19.60;84.00;;;;;;6249806;22;20046;-75
2022/08/20 07:17:56;;;;;;;0.60;0.60;;;19.60;83.90;;;;;;6276971;22;20077;-75
2022/08/20 07:20:22;;;;;;;0.50;0.50;;;19.60;83.90;;;;;;6249213;22;20004;-75
2022/08/20 07:22:48;;;;;;;0.55;0.50;;;19.60;83.80;;;;;;6223404;22;20362;-75
2022/08/20 07:25:17;;;;;;;0.95;0.60;;;19.70;83.80;;;;;;6248336;22;20015;-75
2022/08/20 07:27:44;;;;;;;0.57;0.47;;;19.70;83.70;;;;;;6247172;22;20058;-75
2022/08/20 07:32:57;;;;;;;0.30;0.30;;;19.70;83.60;;;;;;6275253;22;20011;-75
2022/08/20 07:35:23;;;;;;;0.47;0.47;;;19.70;83.50;;;;;;6277093;22;20335;-76
2022/08/20 07:37:53;;;;;;;0.43;0.40;;;19.70;83.40;;;;;;6280516;22;20027;-75
2022/08/20 07:40:26;;;;;;;0.30;0.30;;;19.80;83.40;;;;;;6274961;22;20050;-76
2022/08/20 07:42:52;;;;;;;0.60;0.40;;;19.60;83.10;;;;;;6248531;22;20026;-76
2022/08/20 07:45:19;;;;;;;0.50;0.30;;;19.70;83.20;;;;;;6274730;22;20078;-75
2022/08/20 07:47:46;;;;;;;0.40;0.40;;;19.70;83.00;;;;;;6248082;22;20079;-75
2022/08/20 07:50:18;;;;;;;0.55;0.45;;;19.70;82.80;;;;;;6275299;22;20004;-75
2022/08/20 07:52:44;;;;;;;0.50;0.50;;;19.80;82.80;;;;;;6247835;22;20030;-75
2022/08/20 07:55:14;;;;;;;0.45;0.40;;;19.90;82.80;;;;;;6248684;22;20046;-76
2022/08/20 07:57:41;;;;;;;0.40;0.40;;;19.80;82.50;;;;;;6248430;22;19996;-76
2022/08/20 08:00:10;;;;;;;0.50;0.35;;;19.90;82.30;;;;;;6222487;22;19996;-76
2022/08/20 08:02:36;;;;;;;0.40;0.40;;;20.00;82.10;;;;;;6274981;22;20087;-76
2022/08/20 08:05:03;;;;;;;0.93;0.50;;;20.10;82.00;;;;;;6275179;22;20027;-76
2022/08/20 08:07:29;;;;;;;0.95;0.68;;;20.30;81.80;;;;;;6247832;22;20004;-76
2022/08/20 08:09:56;;;;;;;0.95;0.65;;;20.40;81.40;;;;;;6248638;22;19999;-76
2022/08/20 08:12:24;;;;;;;0.68;0.60;;;20.50;81.00;;;;;;6222606;22;20028;-76
2022/08/20 08:14:50;;;;;;;0.98;0.60;;;20.60;80.70;;;;;;6274930;22;20058;-76
2022/08/20 08:17:18;;;;;;;0.50;0.50;;;20.70;80.30;;;;;;6274837;22;19996;-76
2022/08/20 08:19:48;;;;;;;0.60;0.60;;;20.90;80.10;;;;;;6274722;22;20004;-77
2022/08/20 08:22:17;;;;;;;0.50;0.40;;;21.10;79.80;;;;;;6248554;22;20011;-76
2022/08/20 08:24:46;;;;;;;0.50;0.50;;;21.20;79.30;;;;;;6248128;22;20000;-77
2022/08/20 08:27:12;;;;;;;0.50;0.40;;;21.20;79.20;;;;;;6248090;22;20000;-77
2022/08/20 08:29:38;;;;;;;0.90;0.65;;;21.30;79.30;;;;;;6274621;22;20003;-77
2022/08/20 08:32:05;;;;;;;1.27;0.70;;;21.50;79.10;;;;;;6274622;22;20028;-77
2022/08/20 08:34:33;;;;;;;0.75;0.55;;;21.50;78.60;;;;;;6274636;22;20019;-77
2022/08/20 08:37:01;;;;;;;1.20;0.50;;;21.60;78.60;;;;;;6275249;22;20029;-77
2022/08/20 08:39:29;;;;;;;0.45;0.45;;;21.80;78.40;;;;;;6275004;22;20502;-77
2022/08/20 08:41:57;;;;;;;0.65;0.60;;;21.90;78.20;;;;;;6247752;22;20146;-77
2022/08/20 08:44:28;;;;;;;1.10;0.60;;;22.10;77.90;;;;;;6274539;22;20420;-77
2022/08/20 08:46:58;;;;;;;0.50;0.50;;;22.10;77.70;;;;;;6274432;22;20490;-77
2022/08/20 08:49:31;;;;;;;1.30;0.60;;;22.20;77.60;;;;;;6274649;22;20027;-77
2022/08/20 08:52:04;;;;;;;0.47;0.40;;;22.30;77.40;;;;;;6272233;22;20234;-77
2022/08/20 08:54:31;;;;;;;1.20;0.63;;;22.40;77.30;;;;;;6274296;22;20007;-77
2022/08/20 08:56:58;;;;;;;0.47;0.40;;;22.40;77.50;;;;;;6247693;22;20002;-77
2022/08/20 08:59:27;;;;;;;2.22;0.47;;;22.60;77.20;;;;;;6247098;22;20007;-76
2022/08/20 09:01:56;;;;;;;1.05;0.60;;;22.70;77.10;;;;;;6274322;22;20041;-76
2022/08/20 09:04:29;;;;;;;1.02;0.50;;;22.70;76.80;;;;;;6274381;22;20007;-76
2022/08/20 09:06:55;;;;;;;0.75;0.70;;;22.80;76.50;;;;;;6274484;22;20425;-76
2022/08/20 09:09:26;;;;;;;0.95;0.63;;;22.90;76.40;;;;;;6274982;22;20010;-76
2022/08/20 09:11:55;;;;;;;0.50;0.50;;;23.00;76.00;;;;;;6247595;22;20420;-76
2022/08/20 09:14:23;;;;;;;1.25;0.60;;;23.10;75.90;;;;;;6222081;22;20012;-76
2022/08/20 09:16:50;;;;;;;0.60;0.60;;;23.30;75.60;;;;;;6274734;22;20007;-76
2022/08/20 09:19:16;;;;;;;0.68;0.68;;;23.00;75.60;;;;;;6217749;22;20011;-76
2022/08/20 09:21:42;;;;;;;0.50;0.50;;;22.90;76.30;;;;;;6247563;22;20025;-76
2022/08/20 09:24:07;;;;;;;1.00;0.50;;;23.00;76.30;;;;;;6274004;22;20000;-76
2022/08/20 09:26:33;;;;;;;0.93;0.60;;;23.10;75.90;;;;;;6273909;22;20092;-76
2022/08/20 09:28:59;;;;;;;1.30;0.50;;;23.20;75.50;;;;;;6274628;22;20003;-76
2022/08/20 09:31:25;;;;;;;0.70;0.70;;;23.20;75.20;;;;;;6275564;22;20011;-76
2022/08/20 09:33:51;;;;;;;1.45;0.70;;;23.10;75.00;;;;;;6276211;22;20075;-76
2022/08/20 09:36:17;;;;;;;0.75;0.55;;;23.20;74.90;;;;;;6248968;22;20003;-76
2022/08/20 09:38:43;;;;;;;1.48;0.70;;;23.20;75.00;;;;;;6276086;22;19996;-76
2022/08/20 09:41:09;;;;;;;0.60;0.60;;;22.90;75.10;;;;;;6248156;22;20078;-76
2022/08/20 09:43:35;;;;;;;0.88;0.47;;;22.80;75.60;;;;;;6275935;22;20003;-75
2022/08/20 09:46:01;;;;;;;0.52;0.50;;;22.80;75.90;;;;;;6248435;22;19996;-75
2022/08/20 09:48:27;;;;;;;0.85;0.68;;;22.90;75.50;;;;;;6221907;22;20329;-76
2022/08/20 09:50:52;;;;;;;2.53;1.10;;;23.10;75.10;;;;;;6248003;22;19996;-76
2022/08/20 09:53:20;;;;;;;1.38;1.00;;;23.20;74.00;;;;;;6248367;22;20000;-75
2022/08/20 09:55:51;;;;;;;1.75;0.88;;;23.20;73.40;;;;;;6275738;22;20007;-75
2022/08/20 09:58:43;;;;;;;1.35;0.70;;;23.10;73.60;;;;;;6275383;22;20004;-75
2022/08/20 10:01:13;;;;;;;0.60;0.60;;;23.00;73.90;;;;;;6252392;22;20022;-75
2022/08/20 10:03:40;;;;;;;0.80;0.75;;;23.10;73.80;;;;;;6247788;22;20000;-75
2022/08/20 10:06:06;;;;;;;1.30;0.60;;;23.10;73.60;;;;;;6272385;22;19995;-75
2022/08/20 10:08:32;;;;;;;1.48;0.50;;;23.30;73.40;;;;;;6272790;22;20007;-75
2022/08/20 10:10:58;;;;;;;0.70;0.50;;;23.30;72.90;;;;;;6275680;22;20075;-75
2022/08/20 10:13:24;;;;;;;1.15;0.73;;;23.50;72.40;;;;;;6248345;22;20008;-75
2022/08/20 10:15:50;;;;;;;0.40;0.40;;;23.40;72.10;;;;;;6275382;22;20016;-75
2022/08/20 10:18:15;;;;;;;0.60;0.50;;;23.30;72.30;;;;;;6275886;22;20012;-75
2022/08/20 10:20:42;;;;;;;1.25;0.50;;;23.10;72.60;;;;;;6275695;22;19996;-75
2022/08/20 10:23:07;;;;;;;0.75;0.60;;;23.10;72.80;;;;;;6275352;22;20004;-75
2022/08/20 10:25:33;;;;;;;0.88;0.47;;;23.20;72.50;;;;;;6275648;22;20133;-75
2022/08/20 10:27:59;;;;;;;0.40;0.40;;;23.40;72.20;;;;;;6276041;22;20000;-75
2022/08/20 10:30:25;;;;;;;0.93;0.50;;;23.60;71.70;;;;;;6276231;22;20412;-76
2022/08/20 10:32:51;;;;;;;1.33;0.50;;;23.70;71.10;;;;;;6276163;22;20049;-75
2022/08/20 10:35:17;;;;;;;1.15;0.70;;;23.90;70.70;;;;;;6248895;22;20020;-75
2022/08/20 10:37:44;;;;;;;1.95;0.73;;;23.90;70.10;;;;;;6258488;22;20020;-75
2022/08/20 10:40:10;;;;;;;0.82;0.50;;;23.80;69.90;;;;;;6253658;22;20007;-75
2022/08/20 10:42:36;;;;;;;2.13;0.68;;;23.80;70.20;;;;;;6274970;22;20070;-75
2022/08/20 10:45:02;;;;;;;0.85;0.50;;;23.90;69.90;;;;;;6275130;22;20027;-75
2022/08/20 10:47:30;;;;;;;0.95;0.60;;;24.10;69.50;;;;;;6276069;22;20015;-75
2022/08/20 10:49:58;;;;;;;0.50;0.50;;;24.20;69.10;;;;;;6248137;22;20004;-75
2022/08/20 10:52:25;;;;;;;1.50;0.80;;;24.30;68.60;;;;;;6248781;22;20483;-74
2022/08/20 10:54:51;;;;;;;1.27;0.60;;;24.40;68.30;;;;;;6247454;22;20011;-75
2022/08/20 10:57:20;;;;;;;1.95;0.70;;;24.40;67.90;;;;;;6275197;22;20145;-74
2022/08/20 10:59:48;;;;;;;0.50;0.47;;;24.60;67.50;;;;;;6247968;22;19996;-75
2022/08/20 11:02:15;;;;;;;1.65;0.80;;;24.50;67.30;;;;;;6248167;22;20061;-76
2022/08/20 11:04:41;;;;;;;0.70;0.60;;;24.40;67.50;;;;;;6275714;22;20000;-75
2022/08/20 11:07:13;;;;;;;1.15;0.55;;;24.30;67.80;;;;;;6247993;22;20003;-75
2022/08/20 11:09:39;;;;;;;0.50;0.50;;;24.30;67.70;;;;;;6248289;22;20000;-75
2022/08/20 11:12:06;;;;;;;0.77;0.60;;;24.40;67.60;;;;;;6247436;22;20000;-75
2022/08/20 11:14:32;;;;;;;0.75;0.60;;;24.40;67.20;;;;;;6275224;22;20055;-75
2022/08/20 11:16:59;;;;;;;0.98;0.50;;;24.40;66.80;;;;;;6275872;22;20003;-75
2022/08/20 11:19:25;;;;;;;1.15;0.60;;;24.40;66.20;;;;;;6275119;22;20023;-75
2022/08/20 11:21:51;;;;;;;1.10;0.73;;;24.50;66.10;;;;;;6271832;22;19996;-75
2022/08/20 11:24:17;;;;;;;1.88;0.63;;;24.50;65.90;;;;;;6276040;22;20004;-75
2022/08/20 11:26:46;;;;;;;1.02;0.50;;;24.50;65.70;;;;;;6275913;22;20034;-75
2022/08/20 11:29:12;;;;;;;0.75;0.40;;;24.60;65.40;;;;;;6246191;22;20075;-74
2022/08/20 11:31:38;;;;;;;1.15;0.60;;;24.70;65.10;;;;;;6275638;22;20105;-74
2022/08/20 11:34:03;;;;;;;0.93;0.60;;;24.80;64.70;;;;;;6274795;22;20090;-75
2022/08/20 11:36:30;;;;;;;1.85;0.68;;;24.90;64.40;;;;;;6275111;22;20332;-75
2022/08/20 11:38:56;;;;;;;1.20;0.52;;;24.90;64.20;;;;;;6275104;22;20027;-74
2022/08/20 11:41:22;;;;;;;1.77;0.80;;;25.00;64.00;;;;;;6275531;22;20298;-75
2022/08/20 11:43:47;;;;;;;1.33;0.70;;;24.90;64.40;;;;;;6247105;22;20075;-75
2022/08/20 11:46:13;;;;;;;0.85;0.43;;;25.00;63.70;;;;;;6275396;22;20408;-74
2022/08/20 11:48:39;;;;;;;1.17;0.60;;;25.00;63.70;;;;;;6248501;22;20420;-74
2022/08/20 11:51:05;;;;;;;2.08;0.68;;;25.10;63.30;;;;;;6274541;22;20002;-75
2022/08/20 11:53:31;;;;;;;2.20;0.73;;;25.20;63.20;;;;;;6245912;22;20007;-75
2022/08/20 11:55:57;;;;;;;0.80;0.40;;;25.20;62.90;;;;;;6274797;22;20007;-74
2022/08/20 11:58:22;;;;;;;1.02;0.40;;;25.40;62.60;;;;;;6275312;22;19999;-75
2022/08/20 12:00:48;;;;;;;0.60;0.40;;;25.50;62.40;;;;;;6246772;22;20023;-75
2022/08/20 12:03:14;;;;;;;0.77;0.55;;;25.50;62.10;;;;;;6275157;22;20491;-75
2022/08/20 12:05:43;;;;;;;1.48;0.60;;;25.50;62.00;;;;;;6275191;22;20004;-75
2022/08/20 12:08:09;;;;;;;0.75;0.45;;;25.30;61.90;;;;;;6274802;22;19999;-74
2022/08/20 12:10:37;;;;;;;0.40;0.40;;;25.10;62.40;;;;;;6275432;22;20000;-74
2022/08/20 12:13:03;;;;;;;0.52;0.52;;;25.00;62.70;;;;;;6274637;22;20027;-74
2022/08/20 12:15:29;;;;;;;0.45;0.45;;;25.00;62.60;;;;;;6274511;22;20065;-74
2022/08/20 12:17:55;;;;;;;2.25;0.70;;;25.10;62.30;;;;;;6247380;22;20003;-74
2022/08/20 12:20:22;;;;;;;1.77;0.60;;;25.20;62.10;;;;;;6247458;22;20050;-75
2022/08/20 12:22:48;;;;;;;0.50;0.50;;;25.00;62.00;;;;;;6275113;22;20007;-74
2022/08/20 12:25:14;;;;;;;1.50;0.47;;;24.80;62.20;;;;;;6247918;22;20327;-74
2022/08/20 12:27:41;;;;;;;0.47;0.45;;;24.70;62.40;;;;;;6275228;22;20077;-74
2022/08/20 12:30:10;;;;;;;0.68;0.40;;;24.60;62.40;;;;;;6275207;22;20000;-74
2022/08/20 12:32:36;;;;;;;0.75;0.40;;;24.70;62.20;;;;;;6274804;22;20047;-74
2022/08/20 12:35:05;;;;;;;1.63;0.52;;;24.80;61.90;;;;;;6247503;22;20424;-74
2022/08/20 12:37:31;;;;;;;0.82;0.50;;;24.90;61.30;;;;;;6275145;22;20000;-74
2022/08/20 12:39:59;;;;;;;1.48;0.60;;;24.90;61.10;;;;;;6221968;22;20310;-74
2022/08/20 12:42:29;;;;;;;0.70;0.60;;;25.00;60.70;;;;;;6275280;22;20006;-74
2022/08/20 12:44:55;;;;;;;0.45;0.40;;;25.10;60.40;;;;;;6274560;22;20030;-74
2022/08/20 12:47:26;;;;;;;1.15;0.60;;;25.20;60.10;;;;;;6275088;22;20478;-74
2022/08/20 12:49:56;;;;;;;0.88;0.47;;;25.30;60.00;;;;;;6274351;22;20416;-74
2022/08/20 12:52:24;;;;;;;0.80;0.50;;;25.30;59.70;;;;;;6247368;22;20004;-74
2022/08/20 12:54:50;;;;;;;0.55;0.43;;;25.30;59.60;;;;;;6274143;22;20051;-74
2022/08/20 12:57:27;;;;;;;0.98;0.57;;;25.50;59.60;;;;;;6274646;22;20454;-74